sensor_id;sensor_type;location;lat;lon;timestamp;pressure;altitude;pressure_sealevel;temperature;humidity
53514;BME280;39768;54.148;12.174;2024-02-14T00:01:17;101531.59;;;4.62;59.54
53514;BME280;39768;54.148;12.174;2024-02-14T00:05:20;101533.22;;;3.98;59.51
53514;BME280;39768;54.148;12.174;2024-02-14T00:09:22;101526.94;;;4.05;61.36
53514;BME280;39768;54.148;12.174;2024-02-14T00:13:24;101525.81;;;3.39;61.83
53514;BME280;39768;54.148;12.174;2024-02-14T00:17:26;101527.44;;;3.55;64.81
53514;BME280;39768;54.148;12.174;2024-02-14T00:21:28;101527.28;;;3.72;62.29
53514;BME280;39768;54.148;12.174;2024-02-14T00:25:30;101524.81;;;3.49;62.72
53514;BME280;39768;54.148;12.174;2024-02-14T00:29:32;101525.72;;;3.50;62.17
53514;BME280;39768;54.148;12.174;2024-02-14T00:33:35;101525.28;;;2.91;64.87
53514;BME280;39768;54.148;12.174;2024-02-14T00:37:37;101520.91;;;2.84;63.99
53514;BME280;39768;54.148;12.174;2024-02-14T00:41:39;101527.94;;;3.92;59.38
53514;BME280;39768;54.148;12.174;2024-02-14T00:45:43;101523.28;;;4.11;58.86
53514;BME280;39768;54.148;12.174;2024-02-14T00:49:46;101528.00;;;3.89;59.35
53514;BME280;39768;54.148;12.174;2024-02-14T00:53:49;101513.25;;;3.53;60.11
53514;BME280;39768;54.148;12.174;2024-02-14T00:57:50;101514.03;;;3.63;60.68
53514;BME280;39768;54.148;12.174;2024-02-14T01:01:52;101516.03;;;4.25;57.89
53514;BME280;39768;54.148;12.174;2024-02-14T01:05:54;101503.66;;;3.35;61.09
53514;BME280;39768;54.148;12.174;2024-02-14T01:09:56;101509.41;;;2.76;63.70
53514;BME280;39768;54.148;12.174;2024-02-14T01:13:58;101509.03;;;3.31;59.41
53514;BME280;39768;54.148;12.174;2024-02-14T01:18:00;101512.63;;;4.16;57.42
53514;BME280;39768;54.148;12.174;2024-02-14T01:22:03;101513.25;;;3.52;60.07
53514;BME280;39768;54.148;12.174;2024-02-14T01:26:06;101504.25;;;3.65;58.22
53514;BME280;39768;54.148;12.174;2024-02-14T01:30:09;101514.75;;;3.80;55.06
53514;BME280;39768;54.148;12.174;2024-02-14T01:34:12;101504.47;;;3.44;59.78
53514;BME280;39768;54.148;12.174;2024-02-14T01:38:16;101507.16;;;4.25;55.34
53514;BME280;39768;54.148;12.174;2024-02-14T01:42:18;101502.84;;;4.12;55.31
53514;BME280;39768;54.148;12.174;2024-02-14T01:46:20;101502.44;;;3.68;56.34
53514;BME280;39768;54.148;12.174;2024-02-14T01:50:24;101504.28;;;3.62;57.49
53514;BME280;39768;54.148;12.174;2024-02-14T01:54:33;101493.09;;;3.28;58.79
53514;BME280;39768;54.148;12.174;2024-02-14T01:58:36;101489.31;;;3.49;60.21
53514;BME280;39768;54.148;12.174;2024-02-14T02:02:39;101476.66;;;2.70;63.01
53514;BME280;39768;54.148;12.174;2024-02-14T02:06:49;101478.53;;;2.46;62.02
53514;BME280;39768;54.148;12.174;2024-02-14T02:10:52;101477.53;;;2.67;62.62
53514;BME280;39768;54.148;12.174;2024-02-14T02:14:54;101479.13;;;2.98;62.39
53514;BME280;39768;54.148;12.174;2024-02-14T02:19:01;101475.63;;;2.87;60.00
53514;BME280;39768;54.148;12.174;2024-02-14T02:23:04;101467.66;;;2.89;61.34
53514;BME280;39768;54.148;12.174;2024-02-14T02:27:09;101476.38;;;3.06;58.13
53514;BME280;39768;54.148;12.174;2024-02-14T02:31:11;101471.22;;;3.83;57.52
53514;BME280;39768;54.148;12.174;2024-02-14T02:35:14;101467.91;;;2.49;60.73
53514;BME280;39768;54.148;12.174;2024-02-14T02:39:16;101466.03;;;2.62;60.76
53514;BME280;39768;54.148;12.174;2024-02-14T02:43:19;101467.72;;;2.75;62.11
53514;BME280;39768;54.148;12.174;2024-02-14T02:47:23;101467.91;;;2.49;60.22
53514;BME280;39768;54.148;12.174;2024-02-14T02:51:26;101467.41;;;3.19;56.75
53514;BME280;39768;54.148;12.174;2024-02-14T02:55:32;101468.72;;;3.67;56.04
53514;BME280;39768;54.148;12.174;2024-02-14T02:59:35;101463.34;;;4.46;51.63
53514;BME280;39768;54.148;12.174;2024-02-14T03:03:38;101465.59;;;3.23;55.27
53514;BME280;39768;54.148;12.174;2024-02-14T03:07:41;101453.59;;;2.69;57.77
53514;BME280;39768;54.148;12.174;2024-02-14T03:11:47;101450.16;;;2.54;58.34
53514;BME280;39768;54.148;12.174;2024-02-14T03:15:50;101442.97;;;2.69;60.88
53514;BME280;39768;54.148;12.174;2024-02-14T03:19:56;101438.81;;;2.17;63.08
53514;BME280;39768;54.148;12.174;2024-02-14T03:23:59;101448.72;;;3.25;56.48
53514;BME280;39768;54.148;12.174;2024-02-14T03:28:05;101449.78;;;3.06;56.71
53514;BME280;39768;54.148;12.174;2024-02-14T03:32:10;101442.03;;;2.77;57.90
53514;BME280;39768;54.148;12.174;2024-02-14T03:36:14;101443.53;;;3.13;57.08
53514;BME280;39768;54.148;12.174;2024-02-14T03:40:17;101445.59;;;3.71;56.74
53514;BME280;39768;54.148;12.174;2024-02-14T03:44:19;101423.75;;;2.22;60.61
53514;BME280;39768;54.148;12.174;2024-02-14T03:48:21;101429.94;;;2.24;59.41
53514;BME280;39768;54.148;12.174;2024-02-14T03:52:24;101421.63;;;2.75;61.11
53514;BME280;39768;54.148;12.174;2024-02-14T03:56:27;101429.59;;;2.81;59.59
53514;BME280;39768;54.148;12.174;2024-02-14T04:00:30;101426.50;;;2.06;59.51
53514;BME280;39768;54.148;12.174;2024-02-14T04:04:32;101423.72;;;3.43;57.21
53514;BME280;39768;54.148;12.174;2024-02-14T04:08:34;101429.75;;;3.59;53.84
53514;BME280;39768;54.148;12.174;2024-02-14T04:12:37;101426.56;;;3.23;54.68
53514;BME280;39768;54.148;12.174;2024-02-14T04:16:39;101433.03;;;2.96;55.33
53514;BME280;39768;54.148;12.174;2024-02-14T04:20:42;101434.84;;;3.77;53.57
53514;BME280;39768;54.148;12.174;2024-02-14T04:24:46;101423.31;;;3.77;54.58
53514;BME280;39768;54.148;12.174;2024-02-14T04:28:48;101431.69;;;3.43;55.54
53514;BME280;39768;54.148;12.174;2024-02-14T04:32:50;101411.25;;;2.38;58.24
53514;BME280;39768;54.148;12.174;2024-02-14T04:36:52;101420.25;;;3.33;56.38
53514;BME280;39768;54.148;12.174;2024-02-14T04:40:54;101419.03;;;2.69;57.95
53514;BME280;39768;54.148;12.174;2024-02-14T04:44:58;101414.22;;;3.16;57.42
53514;BME280;39768;54.148;12.174;2024-02-14T04:49:01;101409.53;;;3.40;56.25
53514;BME280;39768;54.148;12.174;2024-02-14T04:53:05;101404.63;;;2.97;57.04
53514;BME280;39768;54.148;12.174;2024-02-14T04:57:06;101402.47;;;3.34;57.39
53514;BME280;39768;54.148;12.174;2024-02-14T05:01:08;101406.44;;;2.92;55.98
53514;BME280;39768;54.148;12.174;2024-02-14T05:05:10;101398.00;;;2.32;61.36
53514;BME280;39768;54.148;12.174;2024-02-14T05:09:13;101401.28;;;2.69;60.82
53514;BME280;39768;54.148;12.174;2024-02-14T05:13:16;101395.63;;;3.10;60.96
53514;BME280;39768;54.148;12.174;2024-02-14T05:17:19;101394.25;;;2.59;63.55
53514;BME280;39768;54.148;12.174;2024-02-14T05:21:23;101393.31;;;2.71;63.04
53514;BME280;39768;54.148;12.174;2024-02-14T05:25:26;101397.66;;;2.82;61.17
53514;BME280;39768;54.148;12.174;2024-02-14T05:29:31;101390.88;;;2.34;64.93
53514;BME280;39768;54.148;12.174;2024-02-14T05:33:37;101391.19;;;3.14;61.06
53514;BME280;39768;54.148;12.174;2024-02-14T05:37:39;101382.81;;;2.48;59.17
53514;BME280;39768;54.148;12.174;2024-02-14T05:41:44;101394.34;;;3.48;60.38
53514;BME280;39768;54.148;12.174;2024-02-14T05:45:47;101392.19;;;3.00;62.74
53514;BME280;39768;54.148;12.174;2024-02-14T05:49:52;101389.56;;;2.94;64.81
53514;BME280;39768;54.148;12.174;2024-02-14T05:53:55;101381.94;;;2.49;66.89
53514;BME280;39768;54.148;12.174;2024-02-14T05:57:58;101385.97;;;3.00;64.22
53514;BME280;39768;54.148;12.174;2024-02-14T06:02:02;101372.56;;;3.12;62.85
53514;BME280;39768;54.148;12.174;2024-02-14T06:06:05;101377.25;;;3.67;61.25
53514;BME280;39768;54.148;12.174;2024-02-14T06:10:08;101375.47;;;3.67;61.33
53514;BME280;39768;54.148;12.174;2024-02-14T06:14:11;101372.59;;;3.08;64.22
53514;BME280;39768;54.148;12.174;2024-02-14T06:18:13;101380.09;;;3.52;61.35
53514;BME280;39768;54.148;12.174;2024-02-14T06:22:17;101365.53;;;3.04;63.81
53514;BME280;39768;54.148;12.174;2024-02-14T06:26:19;101376.75;;;3.34;63.40
53514;BME280;39768;54.148;12.174;2024-02-14T06:30:21;101377.03;;;3.07;65.94
53514;BME280;39768;54.148;12.174;2024-02-14T06:34:26;101381.47;;;3.05;65.13
53514;BME280;39768;54.148;12.174;2024-02-14T06:38:31;101394.63;;;3.97;62.15
53514;BME280;39768;54.148;12.174;2024-02-14T06:42:34;101390.91;;;3.38;63.45
53514;BME280;39768;54.148;12.174;2024-02-14T06:46:37;101386.97;;;3.71;63.87
53514;BME280;39768;54.148;12.174;2024-02-14T06:50:39;101388.50;;;3.17;66.13
53514;BME280;39768;54.148;12.174;2024-02-14T06:54:41;101394.88;;;3.79;62.84
53514;BME280;39768;54.148;12.174;2024-02-14T06:58:43;101389.41;;;3.11;67.78
53514;BME280;39768;54.148;12.174;2024-02-14T07:02:45;101391.19;;;3.14;67.26
53514;BME280;39768;54.148;12.174;2024-02-14T07:06:50;101394.47;;;3.39;65.42
53514;BME280;39768;54.148;12.174;2024-02-14T07:10:54;101396.09;;;3.52;64.60
53514;BME280;39768;54.148;12.174;2024-02-14T07:14:56;101403.72;;;3.82;61.87
53514;BME280;39768;54.148;12.174;2024-02-14T07:18:58;101390.91;;;3.40;65.50
53514;BME280;39768;54.148;12.174;2024-02-14T07:23:20;101382.13;;;3.31;66.86
53514;BME280;39768;54.148;12.174;2024-02-14T07:27:42;101397.63;;;4.38;62.17
53514;BME280;39768;54.148;12.174;2024-02-14T07:31:46;101389.16;;;4.07;62.47
53514;BME280;39768;54.148;12.174;2024-02-14T07:35:48;101395.88;;;4.37;61.66
53514;BME280;39768;54.148;12.174;2024-02-14T07:39:49;101389.03;;;4.20;61.93
53514;BME280;39768;54.148;12.174;2024-02-14T07:43:51;101377.28;;;3.64;65.11
53514;BME280;39768;54.148;12.174;2024-02-14T07:47:53;101373.84;;;2.61;72.82
53514;BME280;39768;54.148;12.174;2024-02-14T07:51:54;101373.56;;;3.00;72.42
53514;BME280;39768;54.148;12.174;2024-02-14T07:55:56;101362.66;;;3.26;71.54
53514;BME280;39768;54.148;12.174;2024-02-14T07:59:58;101360.06;;;3.17;70.98
53514;BME280;39768;54.148;12.174;2024-02-14T08:03:59;101358.53;;;2.93;72.97
53514;BME280;39768;54.148;12.174;2024-02-14T08:08:01;101365.44;;;3.89;68.81
53514;BME280;39768;54.148;12.174;2024-02-14T08:12:03;101349.78;;;4.31;65.23
53514;BME280;39768;54.148;12.174;2024-02-14T08:16:06;101354.75;;;4.51;62.33
53514;BME280;39768;54.148;12.174;2024-02-14T08:20:08;101349.56;;;4.45;65.46
53514;BME280;39768;54.148;12.174;2024-02-14T08:24:10;101343.66;;;4.23;66.18
53514;BME280;39768;54.148;12.174;2024-02-14T08:28:12;101344.91;;;4.57;63.44
53514;BME280;39768;54.148;12.174;2024-02-14T08:32:13;101342.56;;;3.71;67.22
53514;BME280;39768;54.148;12.174;2024-02-14T08:36:15;101340.31;;;3.38;68.40
53514;BME280;39768;54.148;12.174;2024-02-14T08:40:23;101331.63;;;3.91;67.78
53514;BME280;39768;54.148;12.174;2024-02-14T08:44:25;101335.94;;;4.03;66.32
53514;BME280;39768;54.148;12.174;2024-02-14T08:48:26;101323.94;;;3.70;69.80
53514;BME280;39768;54.148;12.174;2024-02-14T08:52:30;101313.22;;;3.76;70.04
53514;BME280;39768;54.148;12.174;2024-02-14T08:56:32;101314.63;;;4.01;69.67
53514;BME280;39768;54.148;12.174;2024-02-14T09:00:38;101306.03;;;4.41;66.68
53514;BME280;39768;54.148;12.174;2024-02-14T09:04:40;101307.38;;;4.66;64.50
53514;BME280;39768;54.148;12.174;2024-02-14T09:08:43;101311.50;;;3.72;67.76
53514;BME280;39768;54.148;12.174;2024-02-14T09:12:45;101309.22;;;4.64;66.38
53514;BME280;39768;54.148;12.174;2024-02-14T09:16:47;101314.53;;;4.06;67.96
53514;BME280;39768;54.148;12.174;2024-02-14T09:20:48;101316.44;;;3.98;67.35
53514;BME280;39768;54.148;12.174;2024-02-14T09:24:51;101313.06;;;4.96;63.36
53514;BME280;39768;54.148;12.174;2024-02-14T09:28:54;101311.25;;;4.50;65.03
53514;BME280;39768;54.148;12.174;2024-02-14T09:32:57;101312.88;;;5.08;62.40
53514;BME280;39768;54.148;12.174;2024-02-14T09:36:59;101313.63;;;4.65;64.28
53514;BME280;39768;54.148;12.174;2024-02-14T09:41:09;101305.97;;;4.46;65.77
53514;BME280;39768;54.148;12.174;2024-02-14T09:45:14;101303.34;;;4.95;63.79
53514;BME280;39768;54.148;12.174;2024-02-14T09:49:21;101316.66;;;5.39;62.18
53514;BME280;39768;54.148;12.174;2024-02-14T09:53:24;101308.28;;;4.08;69.73
53514;BME280;39768;54.148;12.174;2024-02-14T09:57:25;101306.84;;;3.86;70.46
53514;BME280;39768;54.148;12.174;2024-02-14T10:01:27;101303.28;;;3.87;71.61
53514;BME280;39768;54.148;12.174;2024-02-14T10:05:29;101299.34;;;4.68;66.18
53514;BME280;39768;54.148;12.174;2024-02-14T10:09:30;101309.13;;;4.67;66.07
53514;BME280;39768;54.148;12.174;2024-02-14T10:13:32;101304.53;;;4.25;68.11
53514;BME280;39768;54.148;12.174;2024-02-14T10:17:34;101312.09;;;3.23;75.00
53514;BME280;39768;54.148;12.174;2024-02-14T10:21:35;101308.00;;;4.31;72.10
53514;BME280;39768;54.148;12.174;2024-02-14T10:25:37;101313.84;;;3.93;72.93
53514;BME280;39768;54.148;12.174;2024-02-14T10:29:41;101310.78;;;4.21;71.99
53514;BME280;39768;54.148;12.174;2024-02-14T10:33:45;101310.03;;;4.66;71.43
53514;BME280;39768;54.148;12.174;2024-02-14T10:37:48;101303.34;;;3.83;75.89
53514;BME280;39768;54.148;12.174;2024-02-14T10:41:50;101302.25;;;3.31;82.02
53514;BME280;39768;54.148;12.174;2024-02-14T10:45:56;101299.38;;;4.11;75.59
53514;BME280;39768;54.148;12.174;2024-02-14T10:50:03;101300.47;;;3.96;77.68
53514;BME280;39768;54.148;12.174;2024-02-14T10:54:14;101292.94;;;3.64;76.51
53514;BME280;39768;54.148;12.174;2024-02-14T10:58:18;101289.88;;;3.92;78.39
53514;BME280;39768;54.148;12.174;2024-02-14T11:02:22;101278.63;;;3.73;78.55
53514;BME280;39768;54.148;12.174;2024-02-14T11:06:25;101284.19;;;4.70;76.29
53514;BME280;39768;54.148;12.174;2024-02-14T11:10:28;101292.91;;;3.67;79.47
53514;BME280;39768;54.148;12.174;2024-02-14T11:14:31;101285.06;;;4.20;74.58
53514;BME280;39768;54.148;12.174;2024-02-14T11:18:44;101285.94;;;3.59;82.61
53514;BME280;39768;54.148;12.174;2024-02-14T11:22:56;101276.53;;;3.93;79.84
53514;BME280;39768;54.148;12.174;2024-02-14T11:27:02;101278.94;;;4.65;74.94
53514;BME280;39768;54.148;12.174;2024-02-14T11:31:04;101267.97;;;4.33;75.75
53514;BME280;39768;54.148;12.174;2024-02-14T11:35:11;101274.72;;;4.52;74.15
53514;BME280;39768;54.148;12.174;2024-02-14T11:39:13;101273.84;;;4.99;74.64
53514;BME280;39768;54.148;12.174;2024-02-14T11:43:17;101272.19;;;4.46;74.89
53514;BME280;39768;54.148;12.174;2024-02-14T11:47:20;101271.47;;;5.30;70.18
53514;BME280;39768;54.148;12.174;2024-02-14T11:51:21;101276.38;;;5.53;68.74
53514;BME280;39768;54.148;12.174;2024-02-14T11:55:29;101273.19;;;5.76;69.64
53514;BME280;39768;54.148;12.174;2024-02-14T11:59:31;101280.97;;;5.85;68.23
53514;BME280;39768;54.148;12.174;2024-02-14T12:03:34;101274.44;;;5.60;69.43
53514;BME280;39768;54.148;12.174;2024-02-14T12:07:36;101281.53;;;5.16;71.26
53514;BME280;39768;54.148;12.174;2024-02-14T12:11:40;101281.25;;;5.73;72.43
53514;BME280;39768;54.148;12.174;2024-02-14T12:15:46;101288.75;;;6.33;65.72
53514;BME280;39768;54.148;12.174;2024-02-14T12:19:48;101276.41;;;5.07;72.40
53514;BME280;39768;54.148;12.174;2024-02-14T12:23:58;101278.31;;;5.85;66.29
53514;BME280;39768;54.148;12.174;2024-02-14T12:28:00;101285.06;;;6.38;68.35
53514;BME280;39768;54.148;12.174;2024-02-14T12:32:05;101279.06;;;5.92;68.52
53514;BME280;39768;54.148;12.174;2024-02-14T12:36:07;101281.13;;;6.53;68.11
53514;BME280;39768;54.148;12.174;2024-02-14T12:40:09;101280.19;;;6.57;66.50
53514;BME280;39768;54.148;12.174;2024-02-14T12:44:11;101271.34;;;4.92;77.64
53514;BME280;39768;54.148;12.174;2024-02-14T12:48:22;101268.13;;;5.21;76.14
53514;BME280;39768;54.148;12.174;2024-02-14T12:52:24;101278.94;;;7.65;63.36
53514;BME280;39768;54.148;12.174;2024-02-14T12:56:26;101273.59;;;6.33;71.54
53514;BME280;39768;54.148;12.174;2024-02-14T13:00:27;101278.91;;;6.72;67.81
53514;BME280;39768;54.148;12.174;2024-02-14T13:04:31;101282.00;;;6.53;66.46
53514;BME280;39768;54.148;12.174;2024-02-14T13:08:33;101275.84;;;6.14;72.63
53514;BME280;39768;54.148;12.174;2024-02-14T13:12:35;101280.72;;;6.70;69.92
53514;BME280;39768;54.148;12.174;2024-02-14T13:16:37;101284.13;;;6.41;67.72
53514;BME280;39768;54.148;12.174;2024-02-14T13:20:39;101278.09;;;5.96;73.34
53514;BME280;39768;54.148;12.174;2024-02-14T13:24:41;101288.44;;;7.45;65.65
53514;BME280;39768;54.148;12.174;2024-02-14T13:28:43;101295.81;;;6.37;69.95
53514;BME280;39768;54.148;12.174;2024-02-14T13:32:45;101284.63;;;6.91;66.97
53514;BME280;39768;54.148;12.174;2024-02-14T13:36:48;101285.91;;;5.65;74.18
53514;BME280;39768;54.148;12.174;2024-02-14T13:40:50;101290.72;;;6.26;72.18
53514;BME280;39768;54.148;12.174;2024-02-14T13:44:52;101287.06;;;5.93;73.35
53514;BME280;39768;54.148;12.174;2024-02-14T13:48:56;101291.00;;;6.86;70.27
53514;BME280;39768;54.148;12.174;2024-02-14T13:52:58;101274.38;;;6.01;74.01
53514;BME280;39768;54.148;12.174;2024-02-14T13:56:59;101285.28;;;6.29;74.58
53514;BME280;39768;54.148;12.174;2024-02-14T14:01:01;101286.91;;;6.36;73.56
53514;BME280;39768;54.148;12.174;2024-02-14T14:05:04;101280.22;;;6.54;72.92
53514;BME280;39768;54.148;12.174;2024-02-14T14:09:06;101277.84;;;6.77;73.10
53514;BME280;39768;54.148;12.174;2024-02-14T14:13:12;101284.19;;;6.73;70.27
53514;BME280;39768;54.148;12.174;2024-02-14T14:17:15;101284.69;;;7.51;69.21
53514;BME280;39768;54.148;12.174;2024-02-14T14:21:17;101278.31;;;6.59;76.59
53514;BME280;39768;54.148;12.174;2024-02-14T14:25:19;101280.38;;;7.16;70.66
53514;BME280;39768;54.148;12.174;2024-02-14T14:29:21;101283.38;;;6.71;73.60
53514;BME280;39768;54.148;12.174;2024-02-14T14:33:24;101286.03;;;7.04;69.76
53514;BME280;39768;54.148;12.174;2024-02-14T14:37:27;101285.88;;;7.10;71.67
53514;BME280;39768;54.148;12.174;2024-02-14T14:41:29;101285.94;;;7.70;68.42
53514;BME280;39768;54.148;12.174;2024-02-14T14:45:31;101281.69;;;6.30;74.43
53514;BME280;39768;54.148;12.174;2024-02-14T14:49:34;101286.34;;;7.26;75.75
53514;BME280;39768;54.148;12.174;2024-02-14T14:53:36;101283.91;;;5.74;83.49
53514;BME280;39768;54.148;12.174;2024-02-14T14:57:38;101280.69;;;7.35;74.82
53514;BME280;39768;54.148;12.174;2024-02-14T15:01:42;101283.47;;;7.01;78.32
53514;BME280;39768;54.148;12.174;2024-02-14T15:05:44;101291.81;;;7.83;72.30
53514;BME280;39768;54.148;12.174;2024-02-14T15:09:46;101288.88;;;6.65;78.18
53514;BME280;39768;54.148;12.174;2024-02-14T15:13:48;101288.31;;;6.14;79.71
53514;BME280;39768;54.148;12.174;2024-02-14T15:17:49;101293.75;;;7.16;75.08
53514;BME280;39768;54.148;12.174;2024-02-14T15:21:51;101292.84;;;7.17;72.30
53514;BME280;39768;54.148;12.174;2024-02-14T15:25:53;101287.81;;;7.67;69.32
53514;BME280;39768;54.148;12.174;2024-02-14T15:30:04;101292.34;;;7.34;70.57
53514;BME280;39768;54.148;12.174;2024-02-14T15:34:26;101287.78;;;7.37;69.56
53514;BME280;39768;54.148;12.174;2024-02-14T15:38:28;101287.03;;;7.63;71.41
53514;BME280;39768;54.148;12.174;2024-02-14T15:42:30;101284.13;;;7.71;70.49
53514;BME280;39768;54.148;12.174;2024-02-14T15:46:31;101285.22;;;6.69;78.80
53514;BME280;39768;54.148;12.174;2024-02-14T15:50:36;101284.72;;;7.49;75.02
53514;BME280;39768;54.148;12.174;2024-02-14T15:54:38;101285.22;;;7.02;72.73
53514;BME280;39768;54.148;12.174;2024-02-14T15:58:45;101294.53;;;7.50;75.32
53514;BME280;39768;54.148;12.174;2024-02-14T16:02:48;101284.66;;;6.57;79.94
53514;BME280;39768;54.148;12.174;2024-02-14T16:06:49;101286.91;;;7.37;75.19
53514;BME280;39768;54.148;12.174;2024-02-14T16:10:52;101287.25;;;7.55;73.97
53514;BME280;39768;54.148;12.174;2024-02-14T16:14:55;101287.53;;;7.15;74.04
53514;BME280;39768;54.148;12.174;2024-02-14T16:18:58;101291.59;;;7.29;73.53
53514;BME280;39768;54.148;12.174;2024-02-14T16:23:01;101292.13;;;7.10;77.11
53514;BME280;39768;54.148;12.174;2024-02-14T16:27:03;101287.69;;;7.40;76.71
53514;BME280;39768;54.148;12.174;2024-02-14T16:31:05;101287.41;;;6.88;81.48
53514;BME280;39768;54.148;12.174;2024-02-14T16:35:27;101295.34;;;6.57;83.82
53514;BME280;39768;54.148;12.174;2024-02-14T16:39:32;101297.03;;;6.59;83.42
53514;BME280;39768;54.148;12.174;2024-02-14T16:43:44;101299.44;;;7.67;75.88
53514;BME280;39768;54.148;12.174;2024-02-14T16:47:47;101297.59;;;7.06;81.39
53514;BME280;39768;54.148;12.174;2024-02-14T16:51:49;101297.00;;;8.17;72.21
53514;BME280;39768;54.148;12.174;2024-02-14T16:55:50;101287.47;;;8.07;72.09
53514;BME280;39768;54.148;12.174;2024-02-14T16:59:52;101302.53;;;8.39;70.19
53514;BME280;39768;54.148;12.174;2024-02-14T17:03:57;101295.75;;;7.71;73.04
53514;BME280;39768;54.148;12.174;2024-02-14T17:08:06;101303.63;;;8.86;67.28
53514;BME280;39768;54.148;12.174;2024-02-14T17:12:08;101299.00;;;8.91;66.43
53514;BME280;39768;54.148;12.174;2024-02-14T17:16:11;101308.03;;;8.88;66.76
53514;BME280;39768;54.148;12.174;2024-02-14T17:20:12;101305.03;;;8.71;67.54
53514;BME280;39768;54.148;12.174;2024-02-14T17:24:14;101297.53;;;7.71;72.77
53514;BME280;39768;54.148;12.174;2024-02-14T17:28:17;101305.34;;;8.36;69.68
53514;BME280;39768;54.148;12.174;2024-02-14T17:32:19;101303.28;;;8.16;69.37
53514;BME280;39768;54.148;12.174;2024-02-14T17:36:57;101297.81;;;8.73;67.44
53514;BME280;39768;54.148;12.174;2024-02-14T17:41:00;101300.50;;;7.91;72.88
53514;BME280;39768;54.148;12.174;2024-02-14T17:45:02;101304.31;;;7.82;78.29
53514;BME280;39768;54.148;12.174;2024-02-14T17:49:07;101311.53;;;7.80;76.73
53514;BME280;39768;54.148;12.174;2024-02-14T17:53:14;101310.78;;;7.77;79.23
53514;BME280;39768;54.148;12.174;2024-02-14T17:57:20;101314.69;;;7.65;77.56
53514;BME280;39768;54.148;12.174;2024-02-14T18:01:24;101320.38;;;7.84;75.46
53514;BME280;39768;54.148;12.174;2024-02-14T18:05:26;101311.50;;;8.10;74.39
53514;BME280;39768;54.148;12.174;2024-02-14T18:09:29;101311.34;;;8.42;71.93
53514;BME280;39768;54.148;12.174;2024-02-14T18:13:31;101309.88;;;9.11;71.01
53514;BME280;39768;54.148;12.174;2024-02-14T18:17:34;101313.44;;;8.87;71.63
53514;BME280;39768;54.148;12.174;2024-02-14T18:21:37;101311.00;;;9.06;70.82
53514;BME280;39768;54.148;12.174;2024-02-14T18:25:39;101304.63;;;9.33;70.54
53514;BME280;39768;54.148;12.174;2024-02-14T18:29:41;101308.09;;;9.37;69.32
53514;BME280;39768;54.148;12.174;2024-02-14T18:33:44;101314.34;;;9.12;70.34
53514;BME280;39768;54.148;12.174;2024-02-14T18:37:51;101308.81;;;9.40;69.99
53514;BME280;39768;54.148;12.174;2024-02-14T18:41:53;101309.88;;;9.11;70.40
53514;BME280;39768;54.148;12.174;2024-02-14T18:45:56;101307.22;;;9.36;70.73
53514;BME280;39768;54.148;12.174;2024-02-14T18:49:57;101308.16;;;9.83;69.77
53514;BME280;39768;54.148;12.174;2024-02-14T18:53:59;101312.28;;;9.44;72.70
53514;BME280;39768;54.148;12.174;2024-02-14T18:58:02;101313.00;;;9.49;70.75
53514;BME280;39768;54.148;12.174;2024-02-14T19:02:05;101316.06;;;9.40;73.13
53514;BME280;39768;54.148;12.174;2024-02-14T19:06:07;101320.81;;;9.80;70.56
53514;BME280;39768;54.148;12.174;2024-02-14T19:10:09;101319.19;;;9.76;72.88
53514;BME280;39768;54.148;12.174;2024-02-14T19:14:13;101323.09;;;9.42;74.72
53514;BME280;39768;54.148;12.174;2024-02-14T19:18:18;101317.88;;;9.86;73.23
53514;BME280;39768;54.148;12.174;2024-02-14T19:22:20;101325.84;;;9.65;73.16
53514;BME280;39768;54.148;12.174;2024-02-14T19:26:23;101323.63;;;9.77;72.61
53514;BME280;39768;54.148;12.174;2024-02-14T19:30:25;101320.41;;;9.42;77.11
53514;BME280;39768;54.148;12.174;2024-02-14T19:34:28;101319.47;;;9.43;75.19
53514;BME280;39768;54.148;12.174;2024-02-14T19:38:50;101330.00;;;9.97;71.88
53514;BME280;39768;54.148;12.174;2024-02-14T19:43:11;101331.72;;;9.52;75.21
53514;BME280;39768;54.148;12.174;2024-02-14T19:47:48;101322.81;;;9.98;72.40
53514;BME280;39768;54.148;12.174;2024-02-14T19:51:54;101321.28;;;9.91;72.23
53514;BME280;39768;54.148;12.174;2024-02-14T19:55:57;101319.06;;;9.30;76.81
53514;BME280;39768;54.148;12.174;2024-02-14T20:00:03;101322.16;;;9.43;76.11
53514;BME280;39768;54.148;12.174;2024-02-14T20:04:12;101309.94;;;9.35;79.62
53514;BME280;39768;54.148;12.174;2024-02-14T20:08:14;101317.25;;;9.31;77.20
53514;BME280;39768;54.148;12.174;2024-02-14T20:12:17;101320.78;;;9.56;75.76
53514;BME280;39768;54.148;12.174;2024-02-14T20:16:20;101325.41;;;9.53;77.48
53514;BME280;39768;54.148;12.174;2024-02-14T20:20:22;101325.28;;;9.56;76.45
53514;BME280;39768;54.148;12.174;2024-02-14T20:24:25;101329.03;;;9.27;77.49
53514;BME280;39768;54.148;12.174;2024-02-14T20:28:27;101325.31;;;9.31;78.65
53514;BME280;39768;54.148;12.174;2024-02-14T20:32:28;101319.16;;;9.52;78.05
53514;BME280;39768;54.148;12.174;2024-02-14T20:36:32;101320.59;;;9.62;75.99
53514;BME280;39768;54.148;12.174;2024-02-14T20:40:39;101327.72;;;9.39;80.09
53514;BME280;39768;54.148;12.174;2024-02-14T20:44:41;101331.31;;;9.39;76.12
53514;BME280;39768;54.148;12.174;2024-02-14T20:48:43;101337.59;;;9.13;78.65
53514;BME280;39768;54.148;12.174;2024-02-14T20:52:45;101344.03;;;9.34;76.83
53514;BME280;39768;54.148;12.174;2024-02-14T20:56:47;101334.88;;;9.40;76.85
53514;BME280;39768;54.148;12.174;2024-02-14T21:00:48;101351.09;;;8.85;80.07
53514;BME280;39768;54.148;12.174;2024-02-14T21:04:50;101341.13;;;8.62;79.88
53514;BME280;39768;54.148;12.174;2024-02-14T21:08:52;101339.88;;;8.99;83.22
53514;BME280;39768;54.148;12.174;2024-02-14T21:12:53;101345.88;;;8.81;83.76